sensor_id;sensor_type;location;lat;lon;timestamp;P1;durP1;ratioP1;P2;durP2;ratioP2
66380;SDS011;53177;52.648;1.214;2023-04-03T00:01:05;6.90;;;1.10;;
66380;SDS011;53177;52.648;1.214;2023-04-03T00:03:31;5.97;;;1.37;;
66380;SDS011;53177;52.648;1.214;2023-04-03T00:05:56;10.38;;;1.38;;
66380;SDS011;53177;52.648;1.214;2023-04-03T00:08:22;9.47;;;1.30;;
66380;SDS011;53177;52.648;1.214;2023-04-03T00:10:47;8.80;;;1.20;;
66380;SDS011;53177;52.648;1.214;2023-04-03T00:13:13;7.38;;;1.33;;
66380;SDS011;53177;52.648;1.214;2023-04-03T00:15:39;7.43;;;1.10;;
66380;SDS011;53177;52.648;1.214;2023-04-03T00:18:05;5.47;;;0.80;;
66380;SDS011;53177;52.648;1.214;2023-04-03T00:20:31;6.55;;;1.17;;
66380;SDS011;53177;52.648;1.214;2023-04-03T00:22:57;6.00;;;1.15;;
66380;SDS011;53177;52.648;1.214;2023-04-03T00:25:23;5.85;;;0.98;;
66380;SDS011;53177;52.648;1.214;2023-04-03T00:27:48;6.07;;;1.00;;
66380;SDS011;53177;52.648;1.214;2023-04-03T00:30:16;8.55;;;1.20;;
66380;SDS011;53177;52.648;1.214;2023-04-03T00:32:44;7.63;;;1.07;;
66380;SDS011;53177;52.648;1.214;2023-04-03T00:35:09;8.43;;;1.02;;
66380;SDS011;53177;52.648;1.214;2023-04-03T00:37:35;8.57;;;1.48;;
66380;SDS011;53177;52.648;1.214;2023-04-03T00:40:01;8.10;;;1.17;;
66380;SDS011;53177;52.648;1.214;2023-04-03T00:42:27;7.85;;;1.10;;
66380;SDS011;53177;52.648;1.214;2023-04-03T00:47:17;6.30;;;1.50;;
66380;SDS011;53177;52.648;1.214;2023-04-03T00:49:43;6.57;;;1.27;;
66380;SDS011;53177;52.648;1.214;2023-04-03T00:52:13;8.48;;;1.55;;
66380;SDS011;53177;52.648;1.214;2023-04-03T00:54:43;5.88;;;1.20;;
66380;SDS011;53177;52.648;1.214;2023-04-03T00:57:11;7.03;;;1.10;;
66380;SDS011;53177;52.648;1.214;2023-04-03T00:59:41;8.20;;;1.30;;
66380;SDS011;53177;52.648;1.214;2023-04-03T01:02:09;7.18;;;1.10;;
66380;SDS011;53177;52.648;1.214;2023-04-03T01:04:36;7.65;;;1.50;;
66380;SDS011;53177;52.648;1.214;2023-04-03T01:07:14;8.17;;;1.47;;
66380;SDS011;53177;52.648;1.214;2023-04-03T01:09:40;8.82;;;1.25;;
66380;SDS011;53177;52.648;1.214;2023-04-03T01:12:27;7.78;;;1.15;;
66380;SDS011;53177;52.648;1.214;2023-04-03T01:14:55;9.68;;;1.27;;
66380;SDS011;53177;52.648;1.214;2023-04-03T01:17:26;9.13;;;1.30;;
66380;SDS011;53177;52.648;1.214;2023-04-03T01:20:07;8.17;;;1.40;;
66380;SDS011;53177;52.648;1.214;2023-04-03T01:22:52;8.20;;;1.20;;
66380;SDS011;53177;52.648;1.214;2023-04-03T01:25:47;7.40;;;1.45;;
66380;SDS011;53177;52.648;1.214;2023-04-03T01:28:19;8.25;;;1.30;;
66380;SDS011;53177;52.648;1.214;2023-04-03T01:30:50;7.82;;;1.10;;
66380;SDS011;53177;52.648;1.214;2023-04-03T01:33:37;5.43;;;1.27;;
66380;SDS011;53177;52.648;1.214;2023-04-03T01:36:03;6.70;;;0.98;;
66380;SDS011;53177;52.648;1.214;2023-04-03T01:38:29;10.27;;;1.15;;
66380;SDS011;53177;52.648;1.214;2023-04-03T01:40:55;6.85;;;1.20;;
66380;SDS011;53177;52.648;1.214;2023-04-03T01:43:21;9.33;;;1.00;;
66380;SDS011;53177;52.648;1.214;2023-04-03T01:45:46;6.07;;;1.30;;
66380;SDS011;53177;52.648;1.214;2023-04-03T01:48:12;8.23;;;1.50;;
66380;SDS011;53177;52.648;1.214;2023-04-03T01:50:38;8.63;;;1.38;;
66380;SDS011;53177;52.648;1.214;2023-04-03T01:53:04;6.22;;;1.20;;
66380;SDS011;53177;52.648;1.214;2023-04-03T01:55:29;9.77;;;1.50;;
66380;SDS011;53177;52.648;1.214;2023-04-03T01:57:54;9.03;;;1.30;;
66380;SDS011;53177;52.648;1.214;2023-04-03T02:00:20;9.40;;;1.20;;
66380;SDS011;53177;52.648;1.214;2023-04-03T02:02:46;6.95;;;1.20;;
66380;SDS011;53177;52.648;1.214;2023-04-03T02:05:12;9.30;;;1.30;;
66380;SDS011;53177;52.648;1.214;2023-04-03T02:07:37;7.40;;;1.33;;
66380;SDS011;53177;52.648;1.214;2023-04-03T02:10:03;4.87;;;1.00;;
66380;SDS011;53177;52.648;1.214;2023-04-03T02:12:28;7.63;;;1.30;;
66380;SDS011;53177;52.648;1.214;2023-04-03T02:14:54;5.50;;;1.10;;
66380;SDS011;53177;52.648;1.214;2023-04-03T02:17:19;8.73;;;1.58;;
66380;SDS011;53177;52.648;1.214;2023-04-03T02:19:44;7.27;;;1.27;;
66380;SDS011;53177;52.648;1.214;2023-04-03T02:22:10;12.40;;;1.90;;
66380;SDS011;53177;52.648;1.214;2023-04-03T02:24:35;6.87;;;1.40;;
66380;SDS011;53177;52.648;1.214;2023-04-03T02:27:00;7.27;;;1.40;;
66380;SDS011;53177;52.648;1.214;2023-04-03T02:29:26;10.50;;;1.42;;
66380;SDS011;53177;52.648;1.214;2023-04-03T02:31:51;10.40;;;1.60;;
66380;SDS011;53177;52.648;1.214;2023-04-03T02:34:17;9.10;;;1.40;;
66380;SDS011;53177;52.648;1.214;2023-04-03T02:36:43;7.73;;;1.50;;
66380;SDS011;53177;52.648;1.214;2023-04-03T02:39:09;6.68;;;1.30;;
66380;SDS011;53177;52.648;1.214;2023-04-03T02:41:34;7.70;;;1.60;;
66380;SDS011;53177;52.648;1.214;2023-04-03T02:44:01;6.68;;;1.40;;
66380;SDS011;53177;52.648;1.214;2023-04-03T02:46:27;6.25;;;1.30;;
66380;SDS011;53177;52.648;1.214;2023-04-03T02:48:53;9.93;;;1.70;;
66380;SDS011;53177;52.648;1.214;2023-04-03T02:51:18;8.13;;;1.40;;
66380;SDS011;53177;52.648;1.214;2023-04-03T02:53:43;9.25;;;1.33;;
66380;SDS011;53177;52.648;1.214;2023-04-03T02:56:09;9.40;;;1.43;;
66380;SDS011;53177;52.648;1.214;2023-04-03T02:58:34;8.57;;;1.50;;
66380;SDS011;53177;52.648;1.214;2023-04-03T03:01:00;7.03;;;1.20;;
66380;SDS011;53177;52.648;1.214;2023-04-03T03:03:26;9.57;;;1.75;;
66380;SDS011;53177;52.648;1.214;2023-04-03T03:06:00;6.80;;;1.30;;
66380;SDS011;53177;52.648;1.214;2023-04-03T03:08:36;7.28;;;1.40;;
66380;SDS011;53177;52.648;1.214;2023-04-03T03:11:03;5.18;;;1.20;;
66380;SDS011;53177;52.648;1.214;2023-04-03T03:13:29;7.03;;;1.40;;
66380;SDS011;53177;52.648;1.214;2023-04-03T03:15:55;8.73;;;1.27;;
66380;SDS011;53177;52.648;1.214;2023-04-03T03:18:20;10.15;;;1.20;;
66380;SDS011;53177;52.648;1.214;2023-04-03T03:20:47;7.53;;;1.45;;
66380;SDS011;53177;52.648;1.214;2023-04-03T03:23:16;8.07;;;1.58;;
66380;SDS011;53177;52.648;1.214;2023-04-03T03:25:42;9.70;;;1.77;;
66380;SDS011;53177;52.648;1.214;2023-04-03T03:28:07;5.60;;;1.70;;
66380;SDS011;53177;52.648;1.214;2023-04-03T03:30:32;12.67;;;1.87;;
66380;SDS011;53177;52.648;1.214;2023-04-03T03:32:58;9.80;;;1.97;;
66380;SDS011;53177;52.648;1.214;2023-04-03T03:35:23;9.23;;;2.38;;
66380;SDS011;53177;52.648;1.214;2023-04-03T03:37:49;8.60;;;1.77;;
66380;SDS011;53177;52.648;1.214;2023-04-03T03:40:15;11.73;;;1.80;;
66380;SDS011;53177;52.648;1.214;2023-04-03T03:42:41;6.95;;;1.75;;
66380;SDS011;53177;52.648;1.214;2023-04-03T03:45:06;7.00;;;1.73;;
66380;SDS011;53177;52.648;1.214;2023-04-03T03:47:32;11.18;;;1.80;;
66380;SDS011;53177;52.648;1.214;2023-04-03T03:49:58;8.43;;;1.40;;
66380;SDS011;53177;52.648;1.214;2023-04-03T03:52:23;7.53;;;1.70;;
66380;SDS011;53177;52.648;1.214;2023-04-03T03:54:49;9.37;;;1.63;;
66380;SDS011;53177;52.648;1.214;2023-04-03T03:57:14;9.25;;;1.70;;
66380;SDS011;53177;52.648;1.214;2023-04-03T03:59:40;7.50;;;1.50;;
66380;SDS011;53177;52.648;1.214;2023-04-03T04:02:06;6.72;;;1.70;;
66380;SDS011;53177;52.648;1.214;2023-04-03T04:04:32;6.10;;;1.60;;
66380;SDS011;53177;52.648;1.214;2023-04-03T04:06:57;7.37;;;1.57;;
66380;SDS011;53177;52.648;1.214;2023-04-03T04:09:24;7.57;;;1.60;;
66380;SDS011;53177;52.648;1.214;2023-04-03T04:11:50;7.85;;;1.30;;
66380;SDS011;53177;52.648;1.214;2023-04-03T04:14:16;9.10;;;2.00;;
66380;SDS011;53177;52.648;1.214;2023-04-03T04:16:41;5.53;;;1.23;;
66380;SDS011;53177;52.648;1.214;2023-04-03T04:19:06;6.97;;;1.60;;
66380;SDS011;53177;52.648;1.214;2023-04-03T04:21:32;8.00;;;1.60;;
66380;SDS011;53177;52.648;1.214;2023-04-03T04:23:57;9.37;;;1.50;;
66380;SDS011;53177;52.648;1.214;2023-04-03T04:26:22;6.43;;;1.40;;
66380;SDS011;53177;52.648;1.214;2023-04-03T04:28:48;6.60;;;1.40;;
66380;SDS011;53177;52.648;1.214;2023-04-03T04:31:13;8.27;;;1.40;;
66380;SDS011;53177;52.648;1.214;2023-04-03T04:33:38;9.20;;;1.30;;
66380;SDS011;53177;52.648;1.214;2023-04-03T04:36:04;8.60;;;1.60;;
66380;SDS011;53177;52.648;1.214;2023-04-03T04:38:29;8.25;;;1.15;;
66380;SDS011;53177;52.648;1.214;2023-04-03T04:40:55;8.63;;;1.27;;
66380;SDS011;53177;52.648;1.214;2023-04-03T04:43:20;8.10;;;1.50;;
66380;SDS011;53177;52.648;1.214;2023-04-03T04:45:45;8.73;;;1.70;;
66380;SDS011;53177;52.648;1.214;2023-04-03T04:48:11;7.65;;;1.48;;
66380;SDS011;53177;52.648;1.214;2023-04-03T04:50:37;5.63;;;1.40;;
66380;SDS011;53177;52.648;1.214;2023-04-03T04:53:02;9.00;;;2.00;;
66380;SDS011;53177;52.648;1.214;2023-04-03T04:55:29;9.20;;;1.50;;
66380;SDS011;53177;52.648;1.214;2023-04-03T04:57:54;10.67;;;1.47;;
66380;SDS011;53177;52.648;1.214;2023-04-03T05:00:23;6.73;;;1.50;;
66380;SDS011;53177;52.648;1.214;2023-04-03T05:02:52;6.75;;;1.27;;
66380;SDS011;53177;52.648;1.214;2023-04-03T05:05:20;7.72;;;1.60;;
66380;SDS011;53177;52.648;1.214;2023-04-03T05:07:49;8.68;;;1.67;;
66380;SDS011;53177;52.648;1.214;2023-04-03T05:10:17;7.70;;;1.50;;
66380;SDS011;53177;52.648;1.214;2023-04-03T05:12:46;9.37;;;1.50;;
66380;SDS011;53177;52.648;1.214;2023-04-03T05:15:15;5.68;;;1.35;;
66380;SDS011;53177;52.648;1.214;2023-04-03T05:17:46;11.23;;;1.60;;
66380;SDS011;53177;52.648;1.214;2023-04-03T05:20:17;10.98;;;1.63;;
66380;SDS011;53177;52.648;1.214;2023-04-03T05:22:47;5.60;;;1.25;;
66380;SDS011;53177;52.648;1.214;2023-04-03T05:25:16;8.47;;;1.30;;
66380;SDS011;53177;52.648;1.214;2023-04-03T05:27:44;7.05;;;1.70;;
66380;SDS011;53177;52.648;1.214;2023-04-03T05:30:12;7.50;;;1.67;;
66380;SDS011;53177;52.648;1.214;2023-04-03T05:32:38;5.38;;;1.20;;
66380;SDS011;53177;52.648;1.214;2023-04-03T05:35:04;7.33;;;1.77;;
66380;SDS011;53177;52.648;1.214;2023-04-03T05:37:31;10.15;;;2.08;;
66380;SDS011;53177;52.648;1.214;2023-04-03T05:39:57;7.30;;;1.40;;
66380;SDS011;53177;52.648;1.214;2023-04-03T05:42:25;8.03;;;1.40;;
66380;SDS011;53177;52.648;1.214;2023-04-03T05:44:52;5.47;;;1.35;;
66380;SDS011;53177;52.648;1.214;2023-04-03T05:47:18;6.97;;;1.40;;
66380;SDS011;53177;52.648;1.214;2023-04-03T05:49:44;8.00;;;1.52;;
66380;SDS011;53177;52.648;1.214;2023-04-03T05:52:33;8.93;;;1.55;;
66380;SDS011;53177;52.648;1.214;2023-04-03T05:54:58;6.15;;;1.40;;
66380;SDS011;53177;52.648;1.214;2023-04-03T05:57:23;7.13;;;1.40;;
66380;SDS011;53177;52.648;1.214;2023-04-03T05:59:49;10.00;;;1.60;;
66380;SDS011;53177;52.648;1.214;2023-04-03T06:02:16;8.05;;;1.50;;
66380;SDS011;53177;52.648;1.214;2023-04-03T06:04:43;6.90;;;1.30;;
66380;SDS011;53177;52.648;1.214;2023-04-03T06:07:12;6.40;;;1.33;;
66380;SDS011;53177;52.648;1.214;2023-04-03T06:09:40;9.00;;;1.40;;
66380;SDS011;53177;52.648;1.214;2023-04-03T06:12:07;7.00;;;1.30;;
66380;SDS011;53177;52.648;1.214;2023-04-03T06:14:32;9.38;;;1.52;;
66380;SDS011;53177;52.648;1.214;2023-04-03T06:16:58;5.30;;;1.60;;
66380;SDS011;53177;52.648;1.214;2023-04-03T06:19:24;6.20;;;1.40;;
66380;SDS011;53177;52.648;1.214;2023-04-03T06:21:49;8.33;;;1.50;;
66380;SDS011;53177;52.648;1.214;2023-04-03T06:24:16;6.80;;;1.20;;
66380;SDS011;53177;52.648;1.214;2023-04-03T06:26:42;7.30;;;1.60;;
66380;SDS011;53177;52.648;1.214;2023-04-03T06:29:08;5.38;;;1.30;;
66380;SDS011;53177;52.648;1.214;2023-04-03T06:31:33;8.23;;;1.40;;
66380;SDS011;53177;52.648;1.214;2023-04-03T06:34:00;7.60;;;1.30;;
66380;SDS011;53177;52.648;1.214;2023-04-03T06:36:26;8.13;;;2.00;;
66380;SDS011;53177;52.648;1.214;2023-04-03T06:38:51;4.60;;;1.30;;
66380;SDS011;53177;52.648;1.214;2023-04-03T06:41:17;10.43;;;1.50;;
66380;SDS011;53177;52.648;1.214;2023-04-03T06:43:43;7.73;;;2.00;;
66380;SDS011;53177;52.648;1.214;2023-04-03T06:46:15;9.05;;;1.58;;
66380;SDS011;53177;52.648;1.214;2023-04-03T06:48:43;7.20;;;1.58;;
66380;SDS011;53177;52.648;1.214;2023-04-03T06:51:25;7.22;;;1.58;;
66380;SDS011;53177;52.648;1.214;2023-04-03T06:53:53;9.38;;;1.50;;
66380;SDS011;53177;52.648;1.214;2023-04-03T06:56:19;6.87;;;1.60;;
66380;SDS011;53177;52.648;1.214;2023-04-03T06:58:45;7.57;;;1.40;;
66380;SDS011;53177;52.648;1.214;2023-04-03T07:01:12;7.57;;;1.50;;
66380;SDS011;53177;52.648;1.214;2023-04-03T07:03:39;5.65;;;1.40;;
66380;SDS011;53177;52.648;1.214;2023-04-03T07:06:05;6.35;;;1.42;;
66380;SDS011;53177;52.648;1.214;2023-04-03T07:08:32;7.40;;;1.57;;
66380;SDS011;53177;52.648;1.214;2023-04-03T07:10:58;6.72;;;1.80;;
66380;SDS011;53177;52.648;1.214;2023-04-03T07:13:24;8.55;;;1.80;;
66380;SDS011;53177;52.648;1.214;2023-04-03T07:15:50;8.33;;;2.43;;
66380;SDS011;53177;52.648;1.214;2023-04-03T07:18:15;7.57;;;1.90;;
66380;SDS011;53177;52.648;1.214;2023-04-03T07:20:41;6.10;;;1.48;;
66380;SDS011;53177;52.648;1.214;2023-04-03T07:23:07;11.68;;;1.80;;
66380;SDS011;53177;52.648;1.214;2023-04-03T07:25:33;7.80;;;1.80;;
66380;SDS011;53177;52.648;1.214;2023-04-03T07:27:58;8.73;;;1.90;;
66380;SDS011;53177;52.648;1.214;2023-04-03T07:30:24;8.07;;;1.60;;
66380;SDS011;53177;52.648;1.214;2023-04-03T07:32:51;5.93;;;1.63;;
66380;SDS011;53177;52.648;1.214;2023-04-03T07:35:16;12.05;;;1.80;;
66380;SDS011;53177;52.648;1.214;2023-04-03T07:37:42;7.63;;;1.60;;
66380;SDS011;53177;52.648;1.214;2023-04-03T07:40:07;6.83;;;1.77;;
66380;SDS011;53177;52.648;1.214;2023-04-03T07:42:34;6.22;;;2.00;;
66380;SDS011;53177;52.648;1.214;2023-04-03T07:45:00;8.57;;;1.98;;
66380;SDS011;53177;52.648;1.214;2023-04-03T07:47:25;6.25;;;1.60;;
66380;SDS011;53177;52.648;1.214;2023-04-03T07:49:51;8.85;;;1.90;;
66380;SDS011;53177;52.648;1.214;2023-04-03T07:52:17;7.30;;;1.60;;
66380;SDS011;53177;52.648;1.214;2023-04-03T07:54:42;6.60;;;1.50;;
66380;SDS011;53177;52.648;1.214;2023-04-03T07:57:07;7.95;;;1.50;;
66380;SDS011;53177;52.648;1.214;2023-04-03T07:59:33;7.07;;;1.60;;
66380;SDS011;53177;52.648;1.214;2023-04-03T08:01:59;5.73;;;1.50;;
66380;SDS011;53177;52.648;1.214;2023-04-03T08:04:24;10.18;;;1.95;;
66380;SDS011;53177;52.648;1.214;2023-04-03T08:06:51;8.47;;;1.90;;
66380;SDS011;53177;52.648;1.214;2023-04-03T08:09:16;7.40;;;1.70;;
66380;SDS011;53177;52.648;1.214;2023-04-03T08:11:42;6.83;;;1.80;;
66380;SDS011;53177;52.648;1.214;2023-04-03T08:14:07;7.85;;;1.75;;
66380;SDS011;53177;52.648;1.214;2023-04-03T08:16:33;6.67;;;1.60;;
66380;SDS011;53177;52.648;1.214;2023-04-03T08:18:58;6.50;;;1.80;;
66380;SDS011;53177;52.648;1.214;2023-04-03T08:21:24;8.48;;;2.33;;
66380;SDS011;53177;52.648;1.214;2023-04-03T08:23:50;8.07;;;1.83;;
66380;SDS011;53177;52.648;1.214;2023-04-03T08:26:16;8.60;;;1.70;;
66380;SDS011;53177;52.648;1.214;2023-04-03T08:28:45;8.55;;;1.95;;
66380;SDS011;53177;52.648;1.214;2023-04-03T08:31:12;6.85;;;1.90;;
66380;SDS011;53177;52.648;1.214;2023-04-03T08:33:40;7.40;;;2.00;;
66380;SDS011;53177;52.648;1.214;2023-04-03T08:36:07;9.80;;;1.92;;
66380;SDS011;53177;52.648;1.214;2023-04-03T08:38:40;8.07;;;2.10;;
66380;SDS011;53177;52.648;1.214;2023-04-03T08:47:00;6.43;;;1.90;;
66380;SDS011;53177;52.648;1.214;2023-04-03T08:49:33;7.05;;;1.90;;
66380;SDS011;53177;52.648;1.214;2023-04-03T08:52:09;9.30;;;2.10;;
66380;SDS011;53177;52.648;1.214;2023-04-03T08:54:42;10.40;;;2.10;;
66380;SDS011;53177;52.648;1.214;2023-04-03T08:57:24;7.50;;;2.10;;
66380;SDS011;53177;52.648;1.214;2023-04-03T08:59:54;7.30;;;2.05;;
66380;SDS011;53177;52.648;1.214;2023-04-03T09:02:27;7.68;;;2.47;;
66380;SDS011;53177;52.648;1.214;2023-04-03T09:04:57;8.47;;;3.37;;
66380;SDS011;53177;52.648;1.214;2023-04-03T09:07:26;9.68;;;2.45;;
66380;SDS011;53177;52.648;1.214;2023-04-03T09:10:01;6.68;;;2.22;;
66380;SDS011;53177;52.648;1.214;2023-04-03T09:12:31;7.25;;;1.85;;
66380;SDS011;53177;52.648;1.214;2023-04-03T09:23:22;9.82;;;2.28;;
66380;SDS011;53177;52.648;1.214;2023-04-03T09:25:49;6.15;;;2.20;;
66380;SDS011;53177;52.648;1.214;2023-04-03T09:28:18;5.60;;;1.80;;
66380;SDS011;53177;52.648;1.214;2023-04-03T09:30:43;6.40;;;1.90;;
66380;SDS011;53177;52.648;1.214;2023-04-03T09:33:09;7.50;;;2.07;;
66380;SDS011;53177;52.648;1.214;2023-04-03T09:35:36;6.75;;;2.10;;
66380;SDS011;53177;52.648;1.214;2023-04-03T09:45:43;7.38;;;2.00;;
66380;SDS011;53177;52.648;1.214;2023-04-03T09:51:00;7.00;;;2.20;;
66380;SDS011;53177;52.648;1.214;2023-04-03T09:58:45;5.95;;;2.80;;
66380;SDS011;53177;52.648;1.214;2023-04-03T10:01:37;9.77;;;2.80;;
66380;SDS011;53177;52.648;1.214;2023-04-03T10:04:13;7.20;;;2.33;;
66380;SDS011;53177;52.648;1.214;2023-04-03T10:14:36;7.05;;;2.00;;
66380;SDS011;53177;52.648;1.214;2023-04-03T10:25:27;7.22;;;2.55;;
66380;SDS011;53177;52.648;1.214;2023-04-03T10:28:09;9.07;;;2.70;;
66380;SDS011;53177;52.648;1.214;2023-04-03T10:36:20;10.63;;;2.63;;
66380;SDS011;53177;52.648;1.214;2023-04-03T10:52:37;7.38;;;2.50;;
66380;SDS011;53177;52.648;1.214;2023-04-03T10:57:49;7.80;;;2.47;;
66380;SDS011;53177;52.648;1.214;2023-04-03T11:00:21;6.50;;;2.40;;
66380;SDS011;53177;52.648;1.214;2023-04-03T11:02:57;5.13;;;2.08;;
66380;SDS011;53177;52.648;1.214;2023-04-03T11:05:34;7.15;;;3.25;;
66380;SDS011;53177;52.648;1.214;2023-04-03T11:08:07;6.95;;;2.65;;
66380;SDS011;53177;52.648;1.214;2023-04-03T11:10:42;6.80;;;2.27;;
66380;SDS011;53177;52.648;1.214;2023-04-03T11:15:38;6.63;;;2.53;;
66380;SDS011;53177;52.648;1.214;2023-04-03T11:18:05;6.10;;;2.40;;
66380;SDS011;53177;52.648;1.214;2023-04-03T11:20:35;7.90;;;2.72;;
66380;SDS011;53177;52.648;1.214;2023-04-03T11:23:20;7.22;;;2.80;;
66380;SDS011;53177;52.648;1.214;2023-04-03T11:25:51;9.27;;;2.72;;
66380;SDS011;53177;52.648;1.214;2023-04-03T11:28:19;7.43;;;2.20;;
66380;SDS011;53177;52.648;1.214;2023-04-03T11:30:50;8.38;;;2.53;;
66380;SDS011;53177;52.648;1.214;2023-04-03T11:33:40;6.72;;;2.40;;
66380;SDS011;53177;52.648;1.214;2023-04-03T11:36:26;7.72;;;2.55;;
66380;SDS011;53177;52.648;1.214;2023-04-03T11:38:56;6.57;;;2.28;;
66380;SDS011;53177;52.648;1.214;2023-04-03T11:41:26;5.25;;;1.90;;
66380;SDS011;53177;52.648;1.214;2023-04-03T11:44:01;9.40;;;2.75;;
66380;SDS011;53177;52.648;1.214;2023-04-03T11:46:48;6.95;;;2.67;;
66380;SDS011;53177;52.648;1.214;2023-04-03T12:18:59;8.73;;;2.17;;
66380;SDS011;53177;52.648;1.214;2023-04-03T12:32:13;5.93;;;2.17;;
66380;SDS011;53177;52.648;1.214;2023-04-03T12:45:48;8.45;;;2.40;;
66380;SDS011;53177;52.648;1.214;2023-04-03T12:48:24;5.32;;;2.15;;
66380;SDS011;53177;52.648;1.214;2023-04-03T12:50:52;7.93;;;2.30;;
66380;SDS011;53177;52.648;1.214;2023-04-03T12:53:19;6.75;;;2.10;;
66380;SDS011;53177;52.648;1.214;2023-04-03T12:55:57;7.05;;;2.08;;
66380;SDS011;53177;52.648;1.214;2023-04-03T12:58:43;6.60;;;2.33;;
66380;SDS011;53177;52.648;1.214;2023-04-03T13:03:39;7.40;;;2.00;;
66380;SDS011;53177;52.648;1.214;2023-04-03T13:06:10;7.03;;;2.28;;
66380;SDS011;53177;52.648;1.214;2023-04-03T13:08:53;6.22;;;2.10;;
66380;SDS011;53177;52.648;1.214;2023-04-03T13:11:22;7.85;;;2.47;;
66380;SDS011;53177;52.648;1.214;2023-04-03T13:14:03;6.55;;;2.38;;
66380;SDS011;53177;52.648;1.214;2023-04-03T13:16:30;5.65;;;2.08;;
66380;SDS011;53177;52.648;1.214;2023-04-03T13:18:57;6.10;;;2.00;;
66380;SDS011;53177;52.648;1.214;2023-04-03T13:21:24;6.15;;;2.40;;
66380;SDS011;53177;52.648;1.214;2023-04-03T13:23:55;5.70;;;2.10;;
66380;SDS011;53177;52.648;1.214;2023-04-03T13:26:24;6.75;;;2.67;;
66380;SDS011;53177;52.648;1.214;2023-04-03T13:28:52;6.18;;;2.13;;
66380;SDS011;53177;52.648;1.214;2023-04-03T13:31:30;6.88;;;2.25;;
66380;SDS011;53177;52.648;1.214;2023-04-03T13:34:02;7.78;;;2.30;;
66380;SDS011;53177;52.648;1.214;2023-04-03T13:36:31;6.50;;;2.33;;
66380;SDS011;53177;52.648;1.214;2023-04-03T13:41:40;5.80;;;2.20;;
66380;SDS011;53177;52.648;1.214;2023-04-03T13:46:49;6.78;;;2.38;;
66380;SDS011;53177;52.648;1.214;2023-04-03T13:50:29;7.15;;;2.40;;
66380;SDS011;53177;52.648;1.214;2023-04-03T13:52:48;6.93;;;2.30;;
66380;SDS011;53177;52.648;1.214;2023-04-03T13:57:48;8.88;;;2.75;;
66380;SDS011;53177;52.648;1.214;2023-04-03T14:00:51;5.47;;;2.20;;
66380;SDS011;53177;52.648;1.214;2023-04-03T14:06:20;5.63;;;2.40;;
66380;SDS011;53177;52.648;1.214;2023-04-03T14:08:46;7.00;;;2.30;;
66380;SDS011;53177;52.648;1.214;2023-04-03T14:11:16;6.50;;;2.20;;
66380;SDS011;53177;52.648;1.214;2023-04-03T14:13:45;6.35;;;1.92;;
66380;SDS011;53177;52.648;1.214;2023-04-03T14:16:18;5.72;;;2.10;;
66380;SDS011;53177;52.648;1.214;2023-04-03T14:18:45;6.53;;;1.90;;
66380;SDS011;53177;52.648;1.214;2023-04-03T14:21:12;5.57;;;2.00;;
66380;SDS011;53177;52.648;1.214;2023-04-03T14:23:40;5.45;;;1.65;;
66380;SDS011;53177;52.648;1.214;2023-04-03T14:26:10;6.47;;;1.60;;
66380;SDS011;53177;52.648;1.214;2023-04-03T14:28:37;5.93;;;2.17;;
66380;SDS011;53177;52.648;1.214;2023-04-03T14:31:05;6.72;;;1.73;;
66380;SDS011;53177;52.648;1.214;2023-04-03T14:33:31;7.00;;;1.67;;
66380;SDS011;53177;52.648;1.214;2023-04-03T14:36:00;6.27;;;1.70;;
66380;SDS011;53177;52.648;1.214;2023-04-03T14:38:28;5.60;;;1.58;;
66380;SDS011;53177;52.648;1.214;2023-04-03T14:40:55;4.35;;;1.48;;
66380;SDS011;53177;52.648;1.214;2023-04-03T14:43:21;5.18;;;1.27;;
66380;SDS011;53177;52.648;1.214;2023-04-03T14:45:48;5.28;;;1.65;;
66380;SDS011;53177;52.648;1.214;2023-04-03T14:48:19;7.20;;;1.60;;
66380;SDS011;53177;52.648;1.214;2023-04-03T14:50:47;6.25;;;1.50;;
66380;SDS011;53177;52.648;1.214;2023-04-03T14:53:15;6.57;;;1.40;;
66380;SDS011;53177;52.648;1.214;2023-04-03T14:55:45;5.88;;;1.70;;
66380;SDS011;53177;52.648;1.214;2023-04-03T14:58:14;4.85;;;1.50;;
66380;SDS011;53177;52.648;1.214;2023-04-03T15:00:42;5.77;;;1.67;;
66380;SDS011;53177;52.648;1.214;2023-04-03T15:03:18;15.70;;;4.00;;
66380;SDS011;53177;52.648;1.214;2023-04-03T15:05:45;7.45;;;2.33;;
66380;SDS011;53177;52.648;1.214;2023-04-03T15:08:22;4.80;;;1.40;;
66380;SDS011;53177;52.648;1.214;2023-04-03T15:10:51;4.88;;;1.30;;
66380;SDS011;53177;52.648;1.214;2023-04-03T15:13:21;5.63;;;1.77;;
66380;SDS011;53177;52.648;1.214;2023-04-03T15:15:47;5.38;;;1.08;;
66380;SDS011;53177;52.648;1.214;2023-04-03T15:18:14;4.53;;;1.20;;
66380;SDS011;53177;52.648;1.214;2023-04-03T15:20:42;4.18;;;1.20;;
66380;SDS011;53177;52.648;1.214;2023-04-03T15:23:08;4.95;;;0.82;;
66380;SDS011;53177;52.648;1.214;2023-04-03T15:25:35;4.55;;;0.98;;
66380;SDS011;53177;52.648;1.214;2023-04-03T15:28:00;3.90;;;0.97;;
66380;SDS011;53177;52.648;1.214;2023-04-03T15:30:26;3.47;;;0.95;;
66380;SDS011;53177;52.648;1.214;2023-04-03T15:32:52;4.32;;;1.02;;
66380;SDS011;53177;52.648;1.214;2023-04-03T15:35:18;3.70;;;0.90;;
66380;SDS011;53177;52.648;1.214;2023-04-03T15:37:44;3.35;;;0.80;;
66380;SDS011;53177;52.648;1.214;2023-04-03T15:40:09;4.03;;;0.77;;
66380;SDS011;53177;52.648;1.214;2023-04-03T15:42:35;3.67;;;0.80;;
66380;SDS011;53177;52.648;1.214;2023-04-03T15:45:01;4.13;;;0.90;;
66380;SDS011;53177;52.648;1.214;2023-04-03T15:47:27;5.00;;;0.85;;
66380;SDS011;53177;52.648;1.214;2023-04-03T15:49:53;4.87;;;0.80;;
66380;SDS011;53177;52.648;1.214;2023-04-03T15:52:19;3.75;;;0.90;;
66380;SDS011;53177;52.648;1.214;2023-04-03T15:54:44;3.70;;;0.80;;
66380;SDS011;53177;52.648;1.214;2023-04-03T15:57:10;3.47;;;0.80;;
66380;SDS011;53177;52.648;1.214;2023-04-03T15:59:35;3.25;;;0.63;;
66380;SDS011;53177;52.648;1.214;2023-04-03T16:02:00;5.33;;;0.70;;
66380;SDS011;53177;52.648;1.214;2023-04-03T16:04:28;3.08;;;0.60;;
66380;SDS011;53177;52.648;1.214;2023-04-03T16:06:54;4.60;;;0.63;;
66380;SDS011;53177;52.648;1.214;2023-04-03T16:09:19;3.30;;;0.70;;
66380;SDS011;53177;52.648;1.214;2023-04-03T16:11:45;2.63;;;0.60;;
66380;SDS011;53177;52.648;1.214;2023-04-03T16:14:10;2.97;;;0.50;;
66380;SDS011;53177;52.648;1.214;2023-04-03T16:16:36;3.00;;;0.53;;
66380;SDS011;53177;52.648;1.214;2023-04-03T16:19:02;2.83;;;0.70;;
66380;SDS011;53177;52.648;1.214;2023-04-03T16:21:28;3.22;;;0.70;;
66380;SDS011;53177;52.648;1.214;2023-04-03T16:23:56;2.73;;;0.67;;
66380;SDS011;53177;52.648;1.214;2023-04-03T16:26:22;4.07;;;0.90;;
66380;SDS011;53177;52.648;1.214;2023-04-03T16:28:48;4.67;;;0.77;;
66380;SDS011;53177;52.648;1.214;2023-04-03T16:31:13;6.53;;;2.17;;
66380;SDS011;53177;52.648;1.214;2023-04-03T16:33:39;10.70;;;3.30;;
66380;SDS011;53177;52.648;1.214;2023-04-03T16:36:04;3.40;;;0.90;;
66380;SDS011;53177;52.648;1.214;2023-04-03T16:38:30;14.43;;;4.93;;
66380;SDS011;53177;52.648;1.214;2023-04-03T16:40:56;13.67;;;4.03;;
66380;SDS011;53177;52.648;1.214;2023-04-03T16:43:24;17.50;;;5.35;;
66380;SDS011;53177;52.648;1.214;2023-04-03T16:45:49;4.60;;;1.30;;
66380;SDS011;53177;52.648;1.214;2023-04-03T16:48:15;11.43;;;3.13;;
66380;SDS011;53177;52.648;1.214;2023-04-03T16:50:40;12.83;;;4.57;;
66380;SDS011;53177;52.648;1.214;2023-04-03T16:53:06;11.57;;;3.53;;
66380;SDS011;53177;52.648;1.214;2023-04-03T16:55:34;4.15;;;0.95;;
66380;SDS011;53177;52.648;1.214;2023-04-03T16:58:00;5.97;;;1.40;;
66380;SDS011;53177;52.648;1.214;2023-04-03T17:00:28;5.00;;;0.97;;
66380;SDS011;53177;52.648;1.214;2023-04-03T17:02:55;4.20;;;1.10;;
66380;SDS011;53177;52.648;1.214;2023-04-03T17:05:21;4.80;;;1.30;;
66380;SDS011;53177;52.648;1.214;2023-04-03T17:07:46;6.70;;;1.67;;
66380;SDS011;53177;52.648;1.214;2023-04-03T17:10:12;4.73;;;1.20;;